createdAt,value
2018-01-20T00:00:57.662Z,79.50
2018-01-20T00:03:25.232Z,79.50
2018-01-20T00:05:52.804Z,79.50
2018-01-20T00:08:20.381Z,80.10
2018-01-20T00:10:59.786Z,79.90
2018-01-20T00:13:27.409Z,79.50
2018-01-20T00:15:54.871Z,79.70
2018-01-20T00:18:22.347Z,79.40
2018-01-20T00:20:49.826Z,79.50
2018-01-20T00:23:17.300Z,79.50
2018-01-20T00:25:50.439Z,79.50
2018-01-20T00:28:17.960Z,79.50
2018-01-20T00:30:45.532Z,79.50
2018-01-20T00:33:13.074Z,79.70
2018-01-20T00:35:40.587Z,80.10
2018-01-20T00:38:08.794Z,80.80
2018-01-20T00:40:36.274Z,80.70
2018-01-20T00:43:03.762Z,80.80
2018-01-20T00:45:31.244Z,81.00
2018-01-20T00:47:58.738Z,81.00
2018-01-20T00:50:26.966Z,81.00
2018-01-20T00:52:54.434Z,80.90
2018-01-20T00:55:21.930Z,80.90
2018-01-20T00:57:49.403Z,80.90
2018-01-20T01:00:16.873Z,81.00
2018-01-20T01:02:44.362Z,81.30
2018-01-20T01:05:12.669Z,81.40
2018-01-20T01:07:40.298Z,81.30
2018-01-20T01:10:07.797Z,81.20
2018-01-20T01:12:36.026Z,81.10
2018-01-20T01:15:03.489Z,81.00
2018-01-20T01:17:30.982Z,81.20
2018-01-20T01:19:58.450Z,81.20
2018-01-20T01:22:25.915Z,80.90
2018-01-20T01:24:53.398Z,80.80
2018-01-20T01:27:20.878Z,81.30
2018-01-20T01:29:48.458Z,81.50
2018-01-20T01:32:16.026Z,81.40
2018-01-20T01:34:44.355Z,81.40
2018-01-20T01:37:11.827Z,81.40
2018-01-20T01:39:39.318Z,81.50
2018-01-20T01:42:06.864Z,81.60
2018-01-20T01:44:34.438Z,81.70
2018-01-20T01:47:01.931Z,81.20
2018-01-20T01:49:29.396Z,80.80
2018-01-20T01:51:56.862Z,80.30
2018-01-20T01:54:24.422Z,80.00
2018-01-20T01:56:51.962Z,79.90
2018-01-20T01:59:19.531Z,79.40
2018-01-20T02:01:47.034Z,79.40
2018-01-20T02:04:14.494Z,79.20
2018-01-20T02:06:42.735Z,79.50
2018-01-20T02:09:10.219Z,79.40
2018-01-20T02:11:37.698Z,79.40
2018-01-20T02:14:05.262Z,79.50
2018-01-20T02:16:32.750Z,79.70
2018-01-20T02:19:01.047Z,80.10
2018-01-20T02:21:29.351Z,79.90
2018-01-20T02:23:56.838Z,79.80
2018-01-20T02:26:24.318Z,79.80
2018-01-20T02:28:51.864Z,79.90
2018-01-20T02:31:19.345Z,79.70
2018-01-20T02:33:46.809Z,79.60
2018-01-20T02:36:14.354Z,79.70
2018-01-20T02:38:41.852Z,79.70
2018-01-20T02:41:09.378Z,79.40
2018-01-20T02:43:36.850Z,79.30
2018-01-20T02:46:04.342Z,79.30
2018-01-20T02:48:32.606Z,79.00
2018-01-20T02:51:00.075Z,79.00
2018-01-20T02:53:27.653Z,79.00
2018-01-20T02:55:55.246Z,78.90
2018-01-20T02:58:23.528Z,79.00
2018-01-20T03:00:50.982Z,79.00
2018-01-20T03:03:18.447Z,79.00
2018-01-20T03:05:45.911Z,79.00
2018-01-20T03:08:13.490Z,79.00
2018-01-20T03:10:40.954Z,79.20
2018-01-20T03:13:08.438Z,79.50
2018-01-20T03:15:35.939Z,79.80
2018-01-20T03:18:04.170Z,79.90
2018-01-20T03:20:31.638Z,79.90
2018-01-20T03:22:59.121Z,79.90
2018-01-20T03:25:26.638Z,79.90
2018-01-20T03:27:54.870Z,79.80
2018-01-20T03:30:22.362Z,79.80
2018-01-20T03:32:49.834Z,79.90
2018-01-20T03:35:17.297Z,79.80
2018-01-20T03:37:44.787Z,79.80
2018-01-20T03:40:13.018Z,80.20
2018-01-20T03:42:40.488Z,79.90
2018-01-20T03:45:07.970Z,79.90
2018-01-20T03:47:35.438Z,80.30
2018-01-20T03:50:02.898Z,80.30
2018-01-20T03:52:30.394Z,80.40
2018-01-20T03:54:57.874Z,80.70
2018-01-20T03:57:25.447Z,81.10
2018-01-20T03:59:53.059Z,81.30
2018-01-20T04:02:20.522Z,81.10
2018-01-20T04:04:48.786Z,81.00
2018-01-20T04:07:16.358Z,81.00
2018-01-20T04:09:43.822Z,80.90
2018-01-20T04:12:11.289Z,80.90
2018-01-20T04:14:38.859Z,81.00
2018-01-20T04:17:06.331Z,80.70
2018-01-20T04:19:33.794Z,80.60
2018-01-20T04:22:01.385Z,80.50
2018-01-20T04:24:29.643Z,80.40
2018-01-20T04:26:57.110Z,80.40
2018-01-20T04:29:24.601Z,80.50
2018-01-20T04:31:52.174Z,80.80
2018-01-20T04:34:19.662Z,81.00
2018-01-20T04:36:47.927Z,82.00
2018-01-20T04:39:15.390Z,81.30
2018-01-20T04:41:42.917Z,81.40
2018-01-20T04:44:10.402Z,81.70
2018-01-20T04:46:37.922Z,81.80
2018-01-20T04:49:05.387Z,81.80
2018-01-20T04:51:32.870Z,81.80
2018-01-20T04:54:00.430Z,82.00
2018-01-20T04:56:29.418Z,82.30
2018-01-20T04:58:57.051Z,82.20
2018-01-20T05:01:24.588Z,82.50
2018-01-20T05:03:52.060Z,82.60
2018-01-20T05:06:19.562Z,82.80
2018-01-20T05:08:47.790Z,83.00
2018-01-20T05:11:15.320Z,83.00
2018-01-20T05:13:43.566Z,83.20
2018-01-20T05:16:11.038Z,83.20
2018-01-20T05:18:38.502Z,83.10
2018-01-20T05:21:05.990Z,83.10
2018-01-20T05:23:33.458Z,83.10
2018-01-20T05:26:01.018Z,82.80
2018-01-20T05:28:28.594Z,83.00
2018-01-20T05:30:56.058Z,82.70
2018-01-20T05:33:23.573Z,82.80
2018-01-20T05:35:51.150Z,82.80
2018-01-20T05:38:18.615Z,83.10
2018-01-20T05:40:46.078Z,83.50
2018-01-20T05:43:14.437Z,83.50
2018-01-20T05:45:42.049Z,83.50
2018-01-20T05:48:09.620Z,83.00
2018-01-20T05:50:37.157Z,82.80
2018-01-20T05:53:04.626Z,82.80
2018-01-20T05:55:32.194Z,83.40
2018-01-20T05:57:59.686Z,82.60
2018-01-20T06:00:27.918Z,82.80
2018-01-20T06:02:55.425Z,82.70
2018-01-20T06:05:22.914Z,82.40
2018-01-20T06:07:51.153Z,82.10
2018-01-20T06:10:18.654Z,82.00
2018-01-20T06:12:46.141Z,81.60
2018-01-20T06:15:14.370Z,81.60
2018-01-20T06:17:41.882Z,81.60
2018-01-20T06:20:09.366Z,81.40
2018-01-20T06:22:37.602Z,81.60
2018-01-20T06:25:05.066Z,81.50
2018-01-20T06:27:32.562Z,81.30
2018-01-20T06:30:00.042Z,81.40
2018-01-20T06:32:27.517Z,81.00
2018-01-20T06:34:55.011Z,81.10
2018-01-20T06:37:23.242Z,81.20
2018-01-20T06:39:50.734Z,81.10
2018-01-20T06:42:18.230Z,81.00
2018-01-20T06:44:45.789Z,81.00
2018-01-20T06:47:13.301Z,81.10
2018-01-20T06:49:40.806Z,81.20
2018-01-20T06:52:08.276Z,81.10
2018-01-20T06:54:35.770Z,81.10
2018-01-20T06:57:03.265Z,81.90
2018-01-20T06:59:31.534Z,81.50
2018-01-20T07:01:59.005Z,81.50
2018-01-20T07:04:26.496Z,81.50
2018-01-20T07:06:54.734Z,82.30
2018-01-20T07:09:22.334Z,81.50
2018-01-20T07:11:49.827Z,81.40
2018-01-20T07:14:18.063Z,81.10
2018-01-20T07:16:45.600Z,81.00
2018-01-20T07:19:13.095Z,81.00
2018-01-20T07:21:40.649Z,80.70
2018-01-20T07:24:08.186Z,80.40
2018-01-20T07:26:35.785Z,80.40
2018-01-20T07:29:03.257Z,80.80
2018-01-20T07:31:30.788Z,80.30
2018-01-20T07:33:58.358Z,80.10
2018-01-20T07:36:25.822Z,80.20
2018-01-20T07:38:53.291Z,80.10
2018-01-20T07:41:20.774Z,80.00
2018-01-20T07:43:48.347Z,80.00
2018-01-20T07:46:15.816Z,79.90
2018-01-20T07:48:43.298Z,80.00
2018-01-20T07:51:11.642Z,79.90
2018-01-20T07:53:39.111Z,79.70
2018-01-20T07:56:06.601Z,79.90
2018-01-20T07:58:34.075Z,79.60
2018-01-20T08:01:01.542Z,80.20
2018-01-20T08:03:29.026Z,79.40
2018-01-20T08:05:56.494Z,79.20
2018-01-20T08:08:23.964Z,79.00
2018-01-20T08:10:51.453Z,79.20
2018-01-20T08:15:04.074Z,81.20
2018-01-20T08:17:31.578Z,79.30
2018-01-20T08:19:59.874Z,79.30
2018-01-20T08:22:27.445Z,79.20
2018-01-20T08:24:55.691Z,78.80
2018-01-20T08:29:08.796Z,78.70
2018-01-20T08:31:36.286Z,78.70
2018-01-20T08:34:03.746Z,78.70
2018-01-20T08:36:31.300Z,78.80
2018-01-20T08:38:58.794Z,78.50
2018-01-20T08:41:26.344Z,78.30
2018-01-20T08:43:53.826Z,78.70
2018-01-20T08:46:21.325Z,77.30
2018-01-20T08:48:48.818Z,77.30
2018-01-20T08:51:16.310Z,77.10
2018-01-20T08:53:43.866Z,76.80
2018-01-20T08:56:12.194Z,76.40
2018-01-20T08:58:39.658Z,76.40
2018-01-20T09:01:07.151Z,77.10
2018-01-20T09:03:34.622Z,78.30
2018-01-20T09:06:02.134Z,76.40
2018-01-20T09:11:07.148Z,75.60
2018-01-20T09:13:34.679Z,75.60
2018-01-20T09:21:27.586Z,74.50
2018-01-20T09:27:13.534Z,72.90
2018-01-20T09:29:41.007Z,72.80
2018-01-20T09:32:08.486Z,73.00
2018-01-20T09:34:35.974Z,73.10
2018-01-20T09:37:04.209Z,73.10
2018-01-20T09:39:31.678Z,73.00
2018-01-20T09:41:59.198Z,73.00
2018-01-20T09:44:26.683Z,73.00
2018-01-20T09:46:54.922Z,73.10
2018-01-20T09:49:22.534Z,73.00
2018-01-20T09:51:50.772Z,73.10
2018-01-20T09:57:49.066Z,73.00
2018-01-20T10:00:17.326Z,73.00
2018-01-20T10:16:47.406Z,74.00
2018-01-20T10:19:14.874Z,72.20
2018-01-20T10:21:42.346Z,69.60
2018-01-20T10:24:09.858Z,69.90
2018-01-20T10:26:37.331Z,72.50
2018-01-20T10:29:04.865Z,71.00
2018-01-20T10:31:32.364Z,71.10
2018-01-20T10:34:01.389Z,72.20
2018-01-20T10:36:29.242Z,71.70
2018-01-20T10:38:57.559Z,71.80
2018-01-20T10:41:25.026Z,71.70
2018-01-20T10:43:52.595Z,73.00
2018-01-20T10:46:20.166Z,72.00
2018-01-20T10:48:47.739Z,72.40
2018-01-20T10:51:15.326Z,72.70
2018-01-20T10:53:42.818Z,73.30
2018-01-20T10:56:10.313Z,72.60
2018-01-20T10:58:37.786Z,73.20
2018-01-20T11:01:05.404Z,73.00
2018-01-20T11:03:32.871Z,73.20
2018-01-20T11:06:00.342Z,73.10
2018-01-20T11:08:27.829Z,73.60
2018-01-20T11:10:55.380Z,73.90
2018-01-20T11:13:22.953Z,74.70
2018-01-20T11:15:50.443Z,75.30
2018-01-20T11:18:18.002Z,76.50
2018-01-20T11:20:45.530Z,76.50
2018-01-20T11:23:14.026Z,78.60
2018-01-20T11:25:41.494Z,78.30
2018-01-20T11:28:09.062Z,80.20
2018-01-20T11:30:36.633Z,80.60
2018-01-20T11:33:04.098Z,80.60
2018-01-20T11:35:31.581Z,81.50
2018-01-20T11:37:59.086Z,82.00
2018-01-20T11:40:26.553Z,85.60
2018-01-20T11:42:54.088Z,83.00
2018-01-20T11:45:21.591Z,83.60
2018-01-20T11:47:49.242Z,86.40
2018-01-20T11:50:16.706Z,85.20
2018-01-20T11:52:44.193Z,84.50
2018-01-20T11:55:12.500Z,83.80
2018-01-20T11:57:39.962Z,83.80
2018-01-20T12:00:08.218Z,83.00
2018-01-20T12:02:35.686Z,83.00
2018-01-20T12:05:03.271Z,83.80
2018-01-20T12:07:30.775Z,83.90
2018-01-20T12:09:58.246Z,83.90
2018-01-20T12:12:25.718Z,83.90
2018-01-20T12:14:53.229Z,84.00
2018-01-20T12:17:20.720Z,83.40
2018-01-20T12:19:48.198Z,84.00
2018-01-20T12:22:16.463Z,85.20
2018-01-20T12:24:43.953Z,84.70
2018-01-20T12:27:12.269Z,85.50
2018-01-20T12:29:39.754Z,84.40
2018-01-20T12:32:07.222Z,83.70
2018-01-20T12:34:34.690Z,84.70
2018-01-20T12:37:02.174Z,84.40
2018-01-20T12:39:29.647Z,85.50
2018-01-20T12:41:57.370Z,85.90
2018-01-20T12:44:25.631Z,86.80
2018-01-20T12:46:53.101Z,86.80
2018-01-20T12:49:20.590Z,90.80
2018-01-20T12:51:49.590Z,88.10
2018-01-20T12:54:17.061Z,88.00
2018-01-20T12:56:44.534Z,86.30
2018-01-20T12:59:12.090Z,86.50
2018-01-20T13:01:39.564Z,87.10
2018-01-20T13:04:07.083Z,86.80
2018-01-20T13:06:34.586Z,86.90
2018-01-20T13:09:02.086Z,87.00
2018-01-20T13:11:29.658Z,87.00
2018-01-20T13:13:58.207Z,86.80
2018-01-20T13:16:25.688Z,87.40
2018-01-20T13:18:53.154Z,88.00
2018-01-20T13:21:20.701Z,87.50
2018-01-20T13:23:48.242Z,88.20
2018-01-20T13:26:15.742Z,89.20
2018-01-20T13:28:43.238Z,87.80
2018-01-20T13:31:10.750Z,88.30
2018-01-20T13:33:38.228Z,87.50
2018-01-20T13:36:06.490Z,88.10
2018-01-20T13:38:34.012Z,87.40
2018-01-20T13:42:51.838Z,86.60
2018-01-20T13:45:19.309Z,86.60
2018-01-20T13:47:46.774Z,86.90
2018-01-20T13:50:14.270Z,87.80
2018-01-20T13:52:42.506Z,88.50
2018-01-20T13:55:09.978Z,88.40
2018-01-20T13:57:37.619Z,88.40
2018-01-20T14:00:05.191Z,88.50
2018-01-20T14:02:32.763Z,88.60
2018-01-20T14:05:00.303Z,88.90
2018-01-20T14:07:27.870Z,89.00
2018-01-20T14:09:55.338Z,88.80
2018-01-20T14:12:23.156Z,89.40
2018-01-20T14:14:50.621Z,90.20
2018-01-20T14:17:18.854Z,90.20
2018-01-20T14:19:46.350Z,90.20
2018-01-20T14:22:13.818Z,90.10
2018-01-20T14:24:41.282Z,90.20
2018-01-20T14:27:08.766Z,88.70
2018-01-20T14:29:37.011Z,89.90
2018-01-20T14:32:04.513Z,89.10
2018-01-20T14:34:32.021Z,89.60
2018-01-20T14:36:59.487Z,89.60
2018-01-20T14:39:26.961Z,90.10
2018-01-20T14:41:54.466Z,90.10
2018-01-20T14:44:21.968Z,89.90
2018-01-20T14:46:49.434Z,89.90
2018-01-20T14:49:16.945Z,89.90
2018-01-20T14:51:44.518Z,90.00
2018-01-20T14:54:12.054Z,90.30
2018-01-20T14:56:39.614Z,90.20
2018-01-20T14:59:07.229Z,90.30
2018-01-20T15:01:34.770Z,90.10
2018-01-20T15:04:02.462Z,89.90
2018-01-20T15:06:30.690Z,89.90
2018-01-20T15:08:58.162Z,89.80
2018-01-20T15:11:25.650Z,89.60
2018-01-20T15:13:53.118Z,89.10
2018-01-20T15:16:20.586Z,89.10
2018-01-20T15:18:48.090Z,89.70
2018-01-20T15:21:15.563Z,89.50
2018-01-20T15:23:43.819Z,89.40
2018-01-20T15:26:11.310Z,89.30
2018-01-20T15:28:38.829Z,90.00
2018-01-20T15:31:06.293Z,89.90
2018-01-20T15:33:33.816Z,89.20
2018-01-20T15:36:01.290Z,89.90
2018-01-20T15:38:28.863Z,89.80
2018-01-20T15:40:56.380Z,89.80
2018-01-20T15:43:23.911Z,89.40
2018-01-20T15:45:51.378Z,89.60
2018-01-20T15:48:18.867Z,89.80
2018-01-20T15:50:47.130Z,90.10
2018-01-20T15:53:14.707Z,90.10
2018-01-20T15:55:42.274Z,90.00
2018-01-20T15:58:09.842Z,90.10
2018-01-20T16:00:37.311Z,90.20
2018-01-20T16:03:04.902Z,90.10
2018-01-20T16:05:32.458Z,90.20
2018-01-20T16:08:00.033Z,90.10
2018-01-20T16:10:28.302Z,90.10
2018-01-20T16:12:55.795Z,90.10
2018-01-20T16:15:23.363Z,89.50
2018-01-20T16:17:50.870Z,90.00
2018-01-20T16:20:18.408Z,90.10
2018-01-20T16:22:45.885Z,90.20
2018-01-20T16:25:14.204Z,90.10
2018-01-20T16:27:41.679Z,90.10
2018-01-20T16:30:09.145Z,89.90
2018-01-20T16:32:36.653Z,89.80
2018-01-20T16:35:04.119Z,89.90
2018-01-20T16:37:31.652Z,90.00
2018-01-20T16:39:59.146Z,90.00
2018-01-20T16:42:26.623Z,90.10
2018-01-20T16:44:54.098Z,90.10
2018-01-20T16:47:21.598Z,89.70
2018-01-20T16:49:49.067Z,89.80
2018-01-20T16:52:16.530Z,89.50
2018-01-20T16:54:44.114Z,89.50
2018-01-20T16:57:11.693Z,89.80
2018-01-20T16:59:39.225Z,89.70
2018-01-20T17:02:06.821Z,89.60
2018-01-20T17:04:34.394Z,89.50
2018-01-20T17:07:01.858Z,89.40
2018-01-20T17:09:29.362Z,89.50
2018-01-20T17:11:57.598Z,89.60
2018-01-20T17:14:25.068Z,89.40
2018-01-20T17:16:52.550Z,89.30
2018-01-20T17:19:20.041Z,89.90
2018-01-20T17:21:47.510Z,89.60
2018-01-20T17:24:15.091Z,89.40
2018-01-20T17:26:42.696Z,89.40
2018-01-20T17:29:10.237Z,90.00
2018-01-20T17:31:37.699Z,89.80
2018-01-20T17:34:05.211Z,89.70
2018-01-20T17:36:33.449Z,90.30
2018-01-20T17:39:00.948Z,90.00
2018-01-20T17:41:29.209Z,90.00
2018-01-20T17:43:57.439Z,89.80
2018-01-20T17:46:24.948Z,89.80
2018-01-20T17:48:52.402Z,90.00
2018-01-20T17:51:19.874Z,90.10
2018-01-20T17:53:47.371Z,90.20
2018-01-20T17:56:14.858Z,90.20
2018-01-20T17:58:42.618Z,90.20
2018-01-20T18:01:10.102Z,90.20
2018-01-20T18:03:37.702Z,90.30
2018-01-20T18:06:05.238Z,90.70
2018-01-20T18:08:32.744Z,89.90
2018-01-20T18:11:00.990Z,90.30
2018-01-20T18:13:28.458Z,90.30
2018-01-20T18:15:56.042Z,90.00
2018-01-20T18:18:23.510Z,89.80
2018-01-20T18:20:51.802Z,89.90
2018-01-20T18:23:19.374Z,89.90
2018-01-20T18:25:46.844Z,89.70
2018-01-20T18:28:14.340Z,89.80
2018-01-20T18:30:42.702Z,90.20
2018-01-20T18:33:10.170Z,90.10
2018-01-20T18:35:37.645Z,89.90
2018-01-20T18:38:05.154Z,89.40
2018-01-20T18:40:32.619Z,89.80
2018-01-20T18:43:00.194Z,89.70
2018-01-20T18:45:27.674Z,89.90
2018-01-20T18:47:55.144Z,89.70
2018-01-20T18:50:22.614Z,89.80
2018-01-20T18:52:50.106Z,89.80
2018-01-20T18:55:17.574Z,89.60
2018-01-20T18:57:45.046Z,89.70
2018-01-20T19:00:12.543Z,90.00
2018-01-20T19:02:40.010Z,90.00
2018-01-20T19:05:07.487Z,90.00
2018-01-20T19:07:34.974Z,89.60
2018-01-20T19:10:03.250Z,89.20
2018-01-20T19:12:30.718Z,89.10
2018-01-20T19:14:58.210Z,89.30
2018-01-20T19:17:26.438Z,89.10
2018-01-20T19:19:53.942Z,89.00
2018-01-20T19:22:21.556Z,89.20
2018-01-20T19:24:49.023Z,89.00
2018-01-20T19:27:16.491Z,88.70
2018-01-20T19:29:43.982Z,89.20
2018-01-20T19:32:11.450Z,88.80
2018-01-20T19:34:38.918Z,88.70
2018-01-20T19:37:06.422Z,88.70
2018-01-20T19:39:33.891Z,88.10
2018-01-20T19:42:01.414Z,88.50
2018-01-20T19:44:28.898Z,88.10
2018-01-20T19:46:56.427Z,87.80
2018-01-20T19:49:23.900Z,87.90
2018-01-20T19:51:51.499Z,87.60
2018-01-20T19:54:19.072Z,88.10
2018-01-20T19:56:46.645Z,88.20
2018-01-20T19:59:14.186Z,89.00
2018-01-20T20:01:41.788Z,88.50
2018-01-20T20:04:09.262Z,87.90
2018-01-20T20:06:36.829Z,88.10
2018-01-20T20:09:04.298Z,88.20
2018-01-20T20:11:31.871Z,88.40
2018-01-20T20:13:59.354Z,88.90
2018-01-20T20:16:26.874Z,89.00
2018-01-20T20:18:54.450Z,88.90
2018-01-20T20:21:21.958Z,88.90
2018-01-20T20:23:49.498Z,88.70
2018-01-20T20:26:16.974Z,88.60
2018-01-20T20:28:44.474Z,88.70
2018-01-20T20:31:12.006Z,88.90
2018-01-20T20:33:39.485Z,88.70
2018-01-20T20:36:07.083Z,88.40
2018-01-20T20:38:34.546Z,89.00
2018-01-20T20:41:03.201Z,88.30
2018-01-20T20:43:30.790Z,88.20
2018-01-20T20:45:58.363Z,88.90
2018-01-20T20:48:25.829Z,88.70
2018-01-20T20:50:53.318Z,89.10
2018-01-20T20:53:21.562Z,88.70
2018-01-20T20:55:49.029Z,88.70
2018-01-20T20:58:16.520Z,89.30
2018-01-20T21:00:43.992Z,89.30
2018-01-20T21:03:11.466Z,89.20
2018-01-20T21:05:38.975Z,89.30
2018-01-20T21:08:06.450Z,89.50
2018-01-20T21:10:33.921Z,89.50
2018-01-20T21:13:01.497Z,90.00
2018-01-20T21:15:28.966Z,90.00
2018-01-20T21:17:56.539Z,89.80
2018-01-20T21:20:24.066Z,89.60
2018-01-20T21:22:52.355Z,89.90
2018-01-20T21:25:19.827Z,89.90
2018-01-20T21:27:47.346Z,90.10
2018-01-20T21:30:14.870Z,90.20
2018-01-20T21:32:42.459Z,90.30
2018-01-20T21:35:10.710Z,90.00
2018-01-20T21:37:38.198Z,90.00
2018-01-20T21:40:05.674Z,90.10
2018-01-20T21:42:33.276Z,90.10
2018-01-20T21:45:00.849Z,90.40
2018-01-20T21:47:28.386Z,90.40
2018-01-20T21:49:55.995Z,90.50
2018-01-20T21:52:23.467Z,90.60
2018-01-20T21:54:50.938Z,90.40
2018-01-20T21:57:18.507Z,90.50
2018-01-20T21:59:46.044Z,90.40
2018-01-20T22:02:13.618Z,90.50
2018-01-20T22:04:41.110Z,90.90
2018-01-20T22:07:09.359Z,90.70
2018-01-20T22:09:36.834Z,90.70
2018-01-20T22:12:04.406Z,90.80
2018-01-20T22:14:31.878Z,90.60
2018-01-20T22:16:59.352Z,90.60
2018-01-20T22:19:26.841Z,90.70
2018-01-20T22:21:55.078Z,90.80
2018-01-20T22:24:22.619Z,90.80
2018-01-20T22:26:50.190Z,90.90
2018-01-20T22:29:18.421Z,90.90
2018-01-20T22:31:45.918Z,90.80
2018-01-20T22:34:13.539Z,90.80
2018-01-20T22:36:41.059Z,90.90
2018-01-20T22:39:08.534Z,91.10
2018-01-20T22:41:36.031Z,91.10
2018-01-20T22:44:03.569Z,91.40
2018-01-20T22:46:31.043Z,91.10
2018-01-20T22:48:58.613Z,91.10
2018-01-20T22:51:26.116Z,91.10
2018-01-20T22:53:53.654Z,91.10
2018-01-20T22:56:21.162Z,91.10
2018-01-20T22:58:48.638Z,91.10
2018-01-20T23:01:21.977Z,91.10
2018-01-20T23:03:49.508Z,91.10
2018-01-20T23:06:17.082Z,91.10
2018-01-20T23:08:44.613Z,91.10
2018-01-20T23:11:12.114Z,91.10
2018-01-20T23:13:40.362Z,91.10
2018-01-20T23:16:07.858Z,91.10
2018-01-20T23:18:36.098Z,91.10
2018-01-20T23:21:03.570Z,91.10
2018-01-20T23:23:31.067Z,91.10
2018-01-20T23:25:58.647Z,91.10
2018-01-20T23:28:26.138Z,91.10
2018-01-20T23:30:54.406Z,91.10
2018-01-20T23:33:21.878Z,91.10
2018-01-20T23:35:49.454Z,91.70
2018-01-20T23:38:16.954Z,91.90
2018-01-20T23:40:45.194Z,90.70
2018-01-20T23:43:12.680Z,90.60
2018-01-20T23:45:40.263Z,90.60
2018-01-20T23:48:07.736Z,90.80
2018-01-20T23:50:36.046Z,91.10
2018-01-20T23:53:04.306Z,91.10
2018-01-20T23:55:31.774Z,91.10
2018-01-20T23:57:59.247Z,91.00
